sensor_id;sensor_type;location;lat;lon;timestamp;P1;durP1;ratioP1;P2;durP2;ratioP2
48161;SDS011;33950;48.154;16.316;2023-05-07T00:00:16;3.20;;;2.17;;
48161;SDS011;33950;48.154;16.316;2023-05-07T00:03:05;5.25;;;1.75;;
48161;SDS011;33950;48.154;16.316;2023-05-07T00:05:52;4.97;;;1.73;;
48161;SDS011;33950;48.154;16.316;2023-05-07T00:08:41;2.08;;;1.77;;
48161;SDS011;33950;48.154;16.316;2023-05-07T00:11:27;5.18;;;1.77;;
48161;SDS011;33950;48.154;16.316;2023-05-07T00:14:13;4.70;;;2.00;;
48161;SDS011;33950;48.154;16.316;2023-05-07T00:16:59;3.05;;;1.77;;
48161;SDS011;33950;48.154;16.316;2023-05-07T00:19:47;3.33;;;1.75;;
48161;SDS011;33950;48.154;16.316;2023-05-07T00:22:33;4.53;;;2.05;;
48161;SDS011;33950;48.154;16.316;2023-05-07T00:25:19;5.18;;;2.40;;
48161;SDS011;33950;48.154;16.316;2023-05-07T00:28:05;6.28;;;2.13;;
48161;SDS011;33950;48.154;16.316;2023-05-07T00:30:52;2.83;;;2.15;;
48161;SDS011;33950;48.154;16.316;2023-05-07T00:33:38;3.75;;;1.70;;
48161;SDS011;33950;48.154;16.316;2023-05-07T00:36:25;1.85;;;1.35;;
48161;SDS011;33950;48.154;16.316;2023-05-07T00:39:11;1.50;;;1.33;;
48161;SDS011;33950;48.154;16.316;2023-05-07T00:41:58;3.25;;;1.70;;
48161;SDS011;33950;48.154;16.316;2023-05-07T00:44:47;4.57;;;1.50;;
48161;SDS011;33950;48.154;16.316;2023-05-07T00:47:36;2.65;;;1.70;;
48161;SDS011;33950;48.154;16.316;2023-05-07T00:50:22;1.45;;;1.35;;
48161;SDS011;33950;48.154;16.316;2023-05-07T00:53:10;4.72;;;1.50;;
48161;SDS011;33950;48.154;16.316;2023-05-07T00:55:56;1.60;;;1.48;;
48161;SDS011;33950;48.154;16.316;2023-05-07T00:58:42;7.72;;;2.08;;
48161;SDS011;33950;48.154;16.316;2023-05-07T01:01:28;1.80;;;1.55;;
48161;SDS011;33950;48.154;16.316;2023-05-07T01:04:15;2.33;;;1.60;;
48161;SDS011;33950;48.154;16.316;2023-05-07T01:07:01;8.45;;;2.13;;
48161;SDS011;33950;48.154;16.316;2023-05-07T01:09:49;2.60;;;1.83;;
48161;SDS011;33950;48.154;16.316;2023-05-07T01:12:36;3.33;;;1.90;;
48161;SDS011;33950;48.154;16.316;2023-05-07T01:15:24;2.08;;;1.80;;
48161;SDS011;33950;48.154;16.316;2023-05-07T01:18:10;7.00;;;1.30;;
48161;SDS011;33950;48.154;16.316;2023-05-07T01:20:56;1.58;;;1.48;;
48161;SDS011;33950;48.154;16.316;2023-05-07T01:23:45;1.33;;;1.10;;
48161;SDS011;33950;48.154;16.316;2023-05-07T01:26:32;1.98;;;1.60;;
48161;SDS011;33950;48.154;16.316;2023-05-07T01:29:19;3.63;;;1.55;;
48161;SDS011;33950;48.154;16.316;2023-05-07T01:32:05;4.03;;;1.27;;
48161;SDS011;33950;48.154;16.316;2023-05-07T01:34:52;6.18;;;2.13;;
48161;SDS011;33950;48.154;16.316;2023-05-07T01:37:39;5.20;;;1.25;;
48161;SDS011;33950;48.154;16.316;2023-05-07T01:40:27;4.55;;;1.63;;
48161;SDS011;33950;48.154;16.316;2023-05-07T01:43:13;4.90;;;1.27;;
48161;SDS011;33950;48.154;16.316;2023-05-07T01:46:01;6.38;;;1.95;;
48161;SDS011;33950;48.154;16.316;2023-05-07T01:48:47;2.13;;;1.50;;
48161;SDS011;33950;48.154;16.316;2023-05-07T01:51:34;3.55;;;1.75;;
48161;SDS011;33950;48.154;16.316;2023-05-07T01:54:24;6.60;;;2.40;;
48161;SDS011;33950;48.154;16.316;2023-05-07T01:57:14;3.08;;;1.77;;
48161;SDS011;33950;48.154;16.316;2023-05-07T02:00:00;6.47;;;2.67;;
48161;SDS011;33950;48.154;16.316;2023-05-07T02:02:48;5.10;;;2.00;;
48161;SDS011;33950;48.154;16.316;2023-05-07T02:05:34;7.18;;;1.92;;
48161;SDS011;33950;48.154;16.316;2023-05-07T02:08:21;2.50;;;1.70;;
48161;SDS011;33950;48.154;16.316;2023-05-07T02:11:07;3.83;;;1.73;;
48161;SDS011;33950;48.154;16.316;2023-05-07T02:13:55;2.65;;;1.77;;
48161;SDS011;33950;48.154;16.316;2023-05-07T02:16:41;3.30;;;1.90;;
48161;SDS011;33950;48.154;16.316;2023-05-07T02:19:27;3.58;;;2.47;;
48161;SDS011;33950;48.154;16.316;2023-05-07T02:22:13;4.75;;;2.28;;
48161;SDS011;33950;48.154;16.316;2023-05-07T02:25:00;3.35;;;2.13;;
48161;SDS011;33950;48.154;16.316;2023-05-07T02:27:46;4.47;;;2.17;;
48161;SDS011;33950;48.154;16.316;2023-05-07T02:30:34;6.63;;;2.67;;
48161;SDS011;33950;48.154;16.316;2023-05-07T02:33:20;8.45;;;2.38;;
48161;SDS011;33950;48.154;16.316;2023-05-07T02:36:07;3.22;;;2.28;;
48161;SDS011;33950;48.154;16.316;2023-05-07T02:38:54;4.45;;;2.95;;
48161;SDS011;33950;48.154;16.316;2023-05-07T02:41:40;3.53;;;2.50;;
48161;SDS011;33950;48.154;16.316;2023-05-07T02:44:26;7.15;;;2.67;;
48161;SDS011;33950;48.154;16.316;2023-05-07T02:47:14;4.15;;;2.60;;
48161;SDS011;33950;48.154;16.316;2023-05-07T02:50:01;6.18;;;3.47;;
48161;SDS011;33950;48.154;16.316;2023-05-07T02:52:47;3.88;;;2.63;;
48161;SDS011;33950;48.154;16.316;2023-05-07T02:55:33;6.18;;;2.70;;
48161;SDS011;33950;48.154;16.316;2023-05-07T02:58:19;7.53;;;3.00;;
48161;SDS011;33950;48.154;16.316;2023-05-07T03:01:05;12.18;;;3.88;;
48161;SDS011;33950;48.154;16.316;2023-05-07T03:03:53;8.68;;;3.65;;
48161;SDS011;33950;48.154;16.316;2023-05-07T03:06:39;5.35;;;3.60;;
48161;SDS011;33950;48.154;16.316;2023-05-07T03:09:31;7.97;;;3.50;;
48161;SDS011;33950;48.154;16.316;2023-05-07T03:12:19;9.65;;;3.67;;
48161;SDS011;33950;48.154;16.316;2023-05-07T03:15:06;8.57;;;4.38;;
48161;SDS011;33950;48.154;16.316;2023-05-07T03:17:53;8.50;;;4.43;;
48161;SDS011;33950;48.154;16.316;2023-05-07T03:20:41;6.20;;;3.92;;
48161;SDS011;33950;48.154;16.316;2023-05-07T03:23:27;6.30;;;4.07;;
48161;SDS011;33950;48.154;16.316;2023-05-07T03:26:13;13.13;;;4.47;;
48161;SDS011;33950;48.154;16.316;2023-05-07T03:28:59;6.18;;;4.38;;
48161;SDS011;33950;48.154;16.316;2023-05-07T03:31:45;7.90;;;5.00;;
48161;SDS011;33950;48.154;16.316;2023-05-07T03:34:31;8.82;;;5.63;;
48161;SDS011;33950;48.154;16.316;2023-05-07T03:37:19;6.15;;;5.30;;
48161;SDS011;33950;48.154;16.316;2023-05-07T03:40:05;7.47;;;5.78;;
48161;SDS011;33950;48.154;16.316;2023-05-07T03:42:53;8.50;;;5.07;;
48161;SDS011;33950;48.154;16.316;2023-05-07T03:45:39;9.02;;;5.40;;
48161;SDS011;33950;48.154;16.316;2023-05-07T03:48:25;10.90;;;6.20;;
48161;SDS011;33950;48.154;16.316;2023-05-07T03:51:11;10.07;;;6.28;;
48161;SDS011;33950;48.154;16.316;2023-05-07T03:53:59;13.65;;;6.65;;
48161;SDS011;33950;48.154;16.316;2023-05-07T03:56:45;11.75;;;6.88;;
48161;SDS011;33950;48.154;16.316;2023-05-07T03:59:31;11.48;;;7.28;;
48161;SDS011;33950;48.154;16.316;2023-05-07T04:02:17;8.40;;;6.70;;
48161;SDS011;33950;48.154;16.316;2023-05-07T04:05:03;10.88;;;7.32;;
48161;SDS011;33950;48.154;16.316;2023-05-07T04:07:50;11.65;;;8.02;;
48161;SDS011;33950;48.154;16.316;2023-05-07T04:10:37;12.25;;;8.40;;
48161;SDS011;33950;48.154;16.316;2023-05-07T04:13:23;13.40;;;9.27;;
48161;SDS011;33950;48.154;16.316;2023-05-07T04:16:10;13.93;;;8.93;;
48161;SDS011;33950;48.154;16.316;2023-05-07T04:18:56;13.52;;;8.52;;
48161;SDS011;33950;48.154;16.316;2023-05-07T04:21:42;14.82;;;10.57;;
48161;SDS011;33950;48.154;16.316;2023-05-07T04:24:30;18.20;;;11.32;;
48161;SDS011;33950;48.154;16.316;2023-05-07T04:27:18;17.58;;;11.18;;
48161;SDS011;33950;48.154;16.316;2023-05-07T04:30:06;19.60;;;10.60;;
48161;SDS011;33950;48.154;16.316;2023-05-07T04:32:53;22.63;;;11.63;;
48161;SDS011;33950;48.154;16.316;2023-05-07T04:35:41;18.65;;;11.05;;
48161;SDS011;33950;48.154;16.316;2023-05-07T04:38:27;17.83;;;11.60;;
48161;SDS011;33950;48.154;16.316;2023-05-07T04:41:13;17.83;;;12.15;;
48161;SDS011;33950;48.154;16.316;2023-05-07T04:44:01;18.65;;;11.30;;
48161;SDS011;33950;48.154;16.316;2023-05-07T04:46:49;21.00;;;12.27;;
48161;SDS011;33950;48.154;16.316;2023-05-07T04:49:35;19.58;;;11.68;;
48161;SDS011;33950;48.154;16.316;2023-05-07T04:52:21;20.63;;;11.70;;
48161;SDS011;33950;48.154;16.316;2023-05-07T04:55:08;18.73;;;12.68;;
48161;SDS011;33950;48.154;16.316;2023-05-07T04:57:54;19.27;;;12.40;;
48161;SDS011;33950;48.154;16.316;2023-05-07T05:00:41;17.42;;;11.65;;
48161;SDS011;33950;48.154;16.316;2023-05-07T05:03:28;22.15;;;13.18;;
48161;SDS011;33950;48.154;16.316;2023-05-07T05:06:15;19.83;;;13.13;;
48161;SDS011;33950;48.154;16.316;2023-05-07T05:09:01;29.55;;;14.88;;
48161;SDS011;33950;48.154;16.316;2023-05-07T05:11:47;22.48;;;14.82;;
48161;SDS011;33950;48.154;16.316;2023-05-07T05:14:33;29.30;;;15.35;;
48161;SDS011;33950;48.154;16.316;2023-05-07T05:17:21;22.77;;;14.98;;
48161;SDS011;33950;48.154;16.316;2023-05-07T05:20:07;26.42;;;16.85;;
48161;SDS011;33950;48.154;16.316;2023-05-07T05:22:56;26.90;;;17.25;;
48161;SDS011;33950;48.154;16.316;2023-05-07T05:25:42;33.15;;;17.98;;
48161;SDS011;33950;48.154;16.316;2023-05-07T05:28:28;28.20;;;17.75;;
48161;SDS011;33950;48.154;16.316;2023-05-07T05:31:15;29.85;;;18.95;;
48161;SDS011;33950;48.154;16.316;2023-05-07T05:34:03;28.48;;;17.98;;
48161;SDS011;33950;48.154;16.316;2023-05-07T05:36:49;33.22;;;20.67;;
48161;SDS011;33950;48.154;16.316;2023-05-07T05:39:35;29.42;;;19.50;;
48161;SDS011;33950;48.154;16.316;2023-05-07T05:42:21;35.25;;;20.58;;
48161;SDS011;33950;48.154;16.316;2023-05-07T05:45:08;35.10;;;21.00;;
48161;SDS011;33950;48.154;16.316;2023-05-07T05:47:55;31.80;;;21.45;;
48161;SDS011;33950;48.154;16.316;2023-05-07T05:50:43;31.50;;;21.30;;
48161;SDS011;33950;48.154;16.316;2023-05-07T05:53:31;34.90;;;22.02;;
48161;SDS011;33950;48.154;16.316;2023-05-07T05:56:17;38.60;;;23.60;;
48161;SDS011;33950;48.154;16.316;2023-05-07T05:59:03;37.72;;;23.67;;
48161;SDS011;33950;48.154;16.316;2023-05-07T06:01:49;39.70;;;24.52;;
48161;SDS011;33950;48.154;16.316;2023-05-07T06:04:35;36.65;;;23.83;;
48161;SDS011;33950;48.154;16.316;2023-05-07T06:07:26;39.58;;;24.13;;
48161;SDS011;33950;48.154;16.316;2023-05-07T06:10:15;41.50;;;24.95;;
48161;SDS011;33950;48.154;16.316;2023-05-07T06:13:01;38.28;;;22.98;;
48161;SDS011;33950;48.154;16.316;2023-05-07T06:15:56;38.58;;;22.80;;
48161;SDS011;33950;48.154;16.316;2023-05-07T06:18:47;33.58;;;21.35;;
48161;SDS011;33950;48.154;16.316;2023-05-07T06:21:33;39.20;;;24.15;;
48161;SDS011;33950;48.154;16.316;2023-05-07T06:24:23;35.63;;;22.75;;
48161;SDS011;33950;48.154;16.316;2023-05-07T06:27:12;40.42;;;25.20;;
48161;SDS011;33950;48.154;16.316;2023-05-07T06:32:53;42.55;;;25.02;;
48161;SDS011;33950;48.154;16.316;2023-05-07T06:35:42;42.45;;;24.92;;
48161;SDS011;33950;48.154;16.316;2023-05-07T06:38:34;42.55;;;26.45;;
48161;SDS011;33950;48.154;16.316;2023-05-07T06:44:11;38.67;;;24.35;;
48161;SDS011;33950;48.154;16.316;2023-05-07T06:46:57;43.47;;;25.85;;
48161;SDS011;33950;48.154;16.316;2023-05-07T06:49:52;45.92;;;24.80;;
48161;SDS011;33950;48.154;16.316;2023-05-07T06:52:49;42.80;;;24.23;;
48161;SDS011;33950;48.154;16.316;2023-05-07T06:55:47;39.35;;;24.23;;
48161;SDS011;33950;48.154;16.316;2023-05-07T06:58:38;41.58;;;24.75;;
48161;SDS011;33950;48.154;16.316;2023-05-07T07:01:24;41.55;;;25.30;;
48161;SDS011;33950;48.154;16.316;2023-05-07T07:04:10;44.80;;;24.65;;
48161;SDS011;33950;48.154;16.316;2023-05-07T07:06:56;40.22;;;25.92;;
48161;SDS011;33950;48.154;16.316;2023-05-07T07:09:43;37.67;;;25.05;;
48161;SDS011;33950;48.154;16.316;2023-05-07T07:12:32;40.75;;;24.60;;
48161;SDS011;33950;48.154;16.316;2023-05-07T07:15:32;41.80;;;26.15;;
48161;SDS011;33950;48.154;16.316;2023-05-07T07:18:28;36.13;;;23.67;;
48161;SDS011;33950;48.154;16.316;2023-05-07T07:21:16;37.03;;;24.40;;
48161;SDS011;33950;48.154;16.316;2023-05-07T07:24:03;38.22;;;22.30;;
48161;SDS011;33950;48.154;16.316;2023-05-07T07:26:49;40.40;;;23.38;;
48161;SDS011;33950;48.154;16.316;2023-05-07T07:29:35;31.48;;;20.90;;
48161;SDS011;33950;48.154;16.316;2023-05-07T07:32:23;33.47;;;20.85;;
48161;SDS011;33950;48.154;16.316;2023-05-07T07:35:09;31.05;;;19.77;;
48161;SDS011;33950;48.154;16.316;2023-05-07T07:37:55;32.78;;;21.38;;
48161;SDS011;33950;48.154;16.316;2023-05-07T07:40:41;31.10;;;21.25;;
48161;SDS011;33950;48.154;16.316;2023-05-07T07:43:29;32.60;;;18.88;;
48161;SDS011;33950;48.154;16.316;2023-05-07T07:46:15;27.02;;;18.17;;
48161;SDS011;33950;48.154;16.316;2023-05-07T07:49:02;26.20;;;17.88;;
48161;SDS011;33950;48.154;16.316;2023-05-07T07:51:50;34.38;;;20.63;;
48161;SDS011;33950;48.154;16.316;2023-05-07T07:54:36;25.88;;;16.85;;
48161;SDS011;33950;48.154;16.316;2023-05-07T07:57:26;29.20;;;17.77;;
48161;SDS011;33950;48.154;16.316;2023-05-07T08:00:12;31.10;;;17.50;;
48161;SDS011;33950;48.154;16.316;2023-05-07T08:02:59;29.58;;;16.77;;
48161;SDS011;33950;48.154;16.316;2023-05-07T08:05:47;25.13;;;16.13;;
48161;SDS011;33950;48.154;16.316;2023-05-07T08:08:35;30.75;;;16.20;;
48161;SDS011;33950;48.154;16.316;2023-05-07T08:11:21;26.33;;;16.13;;
48161;SDS011;33950;48.154;16.316;2023-05-07T08:14:07;25.58;;;16.08;;
48161;SDS011;33950;48.154;16.316;2023-05-07T08:16:53;26.25;;;15.63;;
48161;SDS011;33950;48.154;16.316;2023-05-07T08:19:39;22.52;;;16.02;;
48161;SDS011;33950;48.154;16.316;2023-05-07T08:22:27;24.85;;;15.70;;
48161;SDS011;33950;48.154;16.316;2023-05-07T08:25:13;30.98;;;14.15;;
48161;SDS011;33950;48.154;16.316;2023-05-07T08:27:59;22.65;;;15.52;;
48161;SDS011;33950;48.154;16.316;2023-05-07T08:30:45;21.38;;;14.48;;
48161;SDS011;33950;48.154;16.316;2023-05-07T08:33:31;22.35;;;15.02;;
48161;SDS011;33950;48.154;16.316;2023-05-07T08:36:18;23.92;;;15.32;;
48161;SDS011;33950;48.154;16.316;2023-05-07T08:39:06;23.05;;;14.68;;
48161;SDS011;33950;48.154;16.316;2023-05-07T08:41:52;22.20;;;15.48;;
48161;SDS011;33950;48.154;16.316;2023-05-07T08:44:44;25.20;;;15.27;;
48161;SDS011;33950;48.154;16.316;2023-05-07T08:47:34;20.75;;;14.05;;
48161;SDS011;33950;48.154;16.316;2023-05-07T08:50:25;24.00;;;15.27;;
48161;SDS011;33950;48.154;16.316;2023-05-07T08:53:11;22.77;;;15.70;;
48161;SDS011;33950;48.154;16.316;2023-05-07T09:02:30;25.55;;;17.17;;
48161;SDS011;33950;48.154;16.316;2023-05-07T09:05:17;22.35;;;14.82;;
48161;SDS011;33950;48.154;16.316;2023-05-07T09:08:06;25.55;;;15.55;;
48161;SDS011;33950;48.154;16.316;2023-05-07T09:11:16;21.90;;;15.45;;
48161;SDS011;33950;48.154;16.316;2023-05-07T09:14:15;22.20;;;14.95;;
48161;SDS011;33950;48.154;16.316;2023-05-07T09:17:02;27.25;;;14.70;;
48161;SDS011;33950;48.154;16.316;2023-05-07T09:20:04;24.35;;;14.40;;
48161;SDS011;33950;48.154;16.316;2023-05-07T09:23:40;19.38;;;13.45;;
48161;SDS011;33950;48.154;16.316;2023-05-07T09:27:04;21.63;;;13.40;;
48161;SDS011;33950;48.154;16.316;2023-05-07T09:30:05;21.33;;;14.20;;
48161;SDS011;33950;48.154;16.316;2023-05-07T09:32:53;20.20;;;14.25;;
48161;SDS011;33950;48.154;16.316;2023-05-07T09:35:40;24.20;;;15.30;;
48161;SDS011;33950;48.154;16.316;2023-05-07T09:38:30;22.65;;;15.93;;
48161;SDS011;33950;48.154;16.316;2023-05-07T09:41:20;20.98;;;15.18;;
48161;SDS011;33950;48.154;16.316;2023-05-07T09:44:08;25.20;;;14.38;;
48161;SDS011;33950;48.154;16.316;2023-05-07T09:46:56;20.98;;;14.73;;
48161;SDS011;33950;48.154;16.316;2023-05-07T09:49:54;22.30;;;14.88;;
48161;SDS011;33950;48.154;16.316;2023-05-07T09:52:43;27.45;;;15.30;;
48161;SDS011;33950;48.154;16.316;2023-05-07T09:55:30;24.13;;;14.30;;
48161;SDS011;33950;48.154;16.316;2023-05-07T09:58:16;19.25;;;13.15;;
48161;SDS011;33950;48.154;16.316;2023-05-07T10:01:04;22.88;;;13.75;;
48161;SDS011;33950;48.154;16.316;2023-05-07T10:03:51;25.15;;;13.60;;
48161;SDS011;33950;48.154;16.316;2023-05-07T10:06:40;21.30;;;13.15;;
48161;SDS011;33950;48.154;16.316;2023-05-07T10:09:27;19.13;;;13.00;;
48161;SDS011;33950;48.154;16.316;2023-05-07T10:12:14;18.55;;;11.68;;
48161;SDS011;33950;48.154;16.316;2023-05-07T10:15:00;21.30;;;13.30;;
48161;SDS011;33950;48.154;16.316;2023-05-07T10:17:47;20.48;;;12.15;;
48161;SDS011;33950;48.154;16.316;2023-05-07T10:20:35;17.98;;;12.15;;
48161;SDS011;33950;48.154;16.316;2023-05-07T10:23:23;17.60;;;11.30;;
48161;SDS011;33950;48.154;16.316;2023-05-07T10:26:11;18.73;;;11.52;;
48161;SDS011;33950;48.154;16.316;2023-05-07T10:29:01;21.50;;;11.60;;
48161;SDS011;33950;48.154;16.316;2023-05-07T10:31:55;18.83;;;11.73;;
48161;SDS011;33950;48.154;16.316;2023-05-07T10:34:46;21.52;;;12.00;;
48161;SDS011;33950;48.154;16.316;2023-05-07T10:37:36;16.55;;;11.68;;
48161;SDS011;33950;48.154;16.316;2023-05-07T10:40:24;22.42;;;11.85;;
48161;SDS011;33950;48.154;16.316;2023-05-07T10:43:10;20.42;;;11.48;;
48161;SDS011;33950;48.154;16.316;2023-05-07T10:46:09;14.57;;;10.32;;
48161;SDS011;33950;48.154;16.316;2023-05-07T10:49:09;16.92;;;10.70;;
48161;SDS011;33950;48.154;16.316;2023-05-07T10:52:12;19.23;;;12.95;;
48161;SDS011;33950;48.154;16.316;2023-05-07T10:55:19;21.05;;;12.73;;
48161;SDS011;33950;48.154;16.316;2023-05-07T10:58:24;19.13;;;11.35;;
48161;SDS011;33950;48.154;16.316;2023-05-07T11:01:11;20.08;;;11.10;;
48161;SDS011;33950;48.154;16.316;2023-05-07T11:04:14;13.93;;;10.45;;
48161;SDS011;33950;48.154;16.316;2023-05-07T11:07:10;19.65;;;11.05;;
48161;SDS011;33950;48.154;16.316;2023-05-07T11:10:11;18.77;;;10.35;;
48161;SDS011;33950;48.154;16.316;2023-05-07T11:12:57;15.95;;;10.43;;
48161;SDS011;33950;48.154;16.316;2023-05-07T11:15:45;13.98;;;9.77;;
48161;SDS011;33950;48.154;16.316;2023-05-07T11:18:45;20.45;;;10.50;;
48161;SDS011;33950;48.154;16.316;2023-05-07T11:21:36;13.52;;;10.32;;
48161;SDS011;33950;48.154;16.316;2023-05-07T11:24:23;15.05;;;10.25;;
48161;SDS011;33950;48.154;16.316;2023-05-07T11:27:10;15.98;;;11.90;;
48161;SDS011;33950;48.154;16.316;2023-05-07T11:29:56;15.52;;;10.13;;
48161;SDS011;33950;48.154;16.316;2023-05-07T11:32:44;12.75;;;8.90;;
48161;SDS011;33950;48.154;16.316;2023-05-07T11:35:33;14.55;;;8.88;;
48161;SDS011;33950;48.154;16.316;2023-05-07T11:38:20;19.27;;;9.07;;
48161;SDS011;33950;48.154;16.316;2023-05-07T11:41:07;13.43;;;9.80;;
48161;SDS011;33950;48.154;16.316;2023-05-07T11:43:54;26.23;;;10.05;;
48161;SDS011;33950;48.154;16.316;2023-05-07T11:46:42;13.05;;;9.45;;
48161;SDS011;33950;48.154;16.316;2023-05-07T11:49:31;15.75;;;11.50;;
48161;SDS011;33950;48.154;16.316;2023-05-07T11:52:18;15.98;;;9.77;;
48161;SDS011;33950;48.154;16.316;2023-05-07T11:55:06;16.17;;;9.35;;
48161;SDS011;33950;48.154;16.316;2023-05-07T11:57:53;10.30;;;8.23;;
48161;SDS011;33950;48.154;16.316;2023-05-07T12:00:39;12.75;;;8.90;;
48161;SDS011;33950;48.154;16.316;2023-05-07T12:03:35;10.05;;;8.00;;
48161;SDS011;33950;48.154;16.316;2023-05-07T12:06:24;13.07;;;9.50;;
48161;SDS011;33950;48.154;16.316;2023-05-07T12:09:11;13.45;;;8.15;;
48161;SDS011;33950;48.154;16.316;2023-05-07T12:11:57;10.60;;;7.70;;
48161;SDS011;33950;48.154;16.316;2023-05-07T12:14:49;13.70;;;8.40;;
48161;SDS011;33950;48.154;16.316;2023-05-07T12:17:35;10.80;;;8.77;;
48161;SDS011;33950;48.154;16.316;2023-05-07T12:20:22;10.88;;;7.88;;
48161;SDS011;33950;48.154;16.316;2023-05-07T12:23:10;13.02;;;7.00;;
48161;SDS011;33950;48.154;16.316;2023-05-07T12:25:58;11.27;;;7.90;;
48161;SDS011;33950;48.154;16.316;2023-05-07T12:28:45;8.50;;;6.28;;
48161;SDS011;33950;48.154;16.316;2023-05-07T12:31:31;12.32;;;8.18;;
48161;SDS011;33950;48.154;16.316;2023-05-07T12:34:20;11.45;;;7.68;;
48161;SDS011;33950;48.154;16.316;2023-05-07T12:37:07;10.95;;;8.68;;
48161;SDS011;33950;48.154;16.316;2023-05-07T12:40:06;13.13;;;8.80;;
48161;SDS011;33950;48.154;16.316;2023-05-07T12:42:58;15.57;;;8.70;;
48161;SDS011;33950;48.154;16.316;2023-05-07T12:45:45;19.23;;;8.77;;
48161;SDS011;33950;48.154;16.316;2023-05-07T12:48:32;13.85;;;8.40;;
48161;SDS011;33950;48.154;16.316;2023-05-07T12:51:19;14.43;;;8.57;;
48161;SDS011;33950;48.154;16.316;2023-05-07T12:54:05;12.40;;;8.25;;
48161;SDS011;33950;48.154;16.316;2023-05-07T12:56:52;10.77;;;8.02;;
48161;SDS011;33950;48.154;16.316;2023-05-07T12:59:46;12.52;;;7.43;;
48161;SDS011;33950;48.154;16.316;2023-05-07T13:02:32;12.95;;;8.95;;
48161;SDS011;33950;48.154;16.316;2023-05-07T13:05:19;20.20;;;8.52;;
48161;SDS011;33950;48.154;16.316;2023-05-07T13:08:06;11.80;;;8.15;;
48161;SDS011;33950;48.154;16.316;2023-05-07T13:10:53;13.27;;;7.13;;
48161;SDS011;33950;48.154;16.316;2023-05-07T13:13:40;20.08;;;8.80;;
48161;SDS011;33950;48.154;16.316;2023-05-07T13:16:27;13.80;;;7.32;;
48161;SDS011;33950;48.154;16.316;2023-05-07T13:19:13;12.85;;;7.85;;
48161;SDS011;33950;48.154;16.316;2023-05-07T13:21:59;12.15;;;7.93;;
48161;SDS011;33950;48.154;16.316;2023-05-07T13:24:45;11.07;;;7.30;;
48161;SDS011;33950;48.154;16.316;2023-05-07T13:27:31;15.98;;;7.47;;
48161;SDS011;33950;48.154;16.316;2023-05-07T13:30:22;13.10;;;6.32;;
48161;SDS011;33950;48.154;16.316;2023-05-07T13:33:08;17.75;;;6.22;;
48161;SDS011;33950;48.154;16.316;2023-05-07T13:35:55;11.70;;;6.80;;
48161;SDS011;33950;48.154;16.316;2023-05-07T13:38:42;13.65;;;6.50;;
48161;SDS011;33950;48.154;16.316;2023-05-07T13:41:29;9.43;;;6.95;;
48161;SDS011;33950;48.154;16.316;2023-05-07T13:44:15;10.90;;;6.25;;
48161;SDS011;33950;48.154;16.316;2023-05-07T13:47:02;9.07;;;6.75;;
48161;SDS011;33950;48.154;16.316;2023-05-07T13:49:48;13.20;;;6.65;;
48161;SDS011;33950;48.154;16.316;2023-05-07T13:52:37;12.40;;;7.07;;
48161;SDS011;33950;48.154;16.316;2023-05-07T13:55:28;17.15;;;7.25;;
48161;SDS011;33950;48.154;16.316;2023-05-07T13:58:14;12.18;;;6.45;;
48161;SDS011;33950;48.154;16.316;2023-05-07T14:01:00;13.10;;;7.38;;
48161;SDS011;33950;48.154;16.316;2023-05-07T14:03:48;11.90;;;6.50;;
48161;SDS011;33950;48.154;16.316;2023-05-07T14:06:34;8.30;;;5.70;;
48161;SDS011;33950;48.154;16.316;2023-05-07T14:09:20;12.10;;;6.38;;
48161;SDS011;33950;48.154;16.316;2023-05-07T14:12:06;9.50;;;6.18;;
48161;SDS011;33950;48.154;16.316;2023-05-07T14:14:52;8.75;;;5.68;;
48161;SDS011;33950;48.154;16.316;2023-05-07T14:17:38;11.70;;;5.72;;
48161;SDS011;33950;48.154;16.316;2023-05-07T14:20:26;6.53;;;4.72;;
48161;SDS011;33950;48.154;16.316;2023-05-07T14:23:12;8.00;;;5.57;;
48161;SDS011;33950;48.154;16.316;2023-05-07T14:25:58;12.93;;;6.03;;
48161;SDS011;33950;48.154;16.316;2023-05-07T14:28:44;11.93;;;5.65;;
48161;SDS011;33950;48.154;16.316;2023-05-07T14:31:31;6.18;;;4.90;;
48161;SDS011;33950;48.154;16.316;2023-05-07T14:34:18;17.13;;;5.10;;
48161;SDS011;33950;48.154;16.316;2023-05-07T14:37:06;15.23;;;5.43;;
48161;SDS011;33950;48.154;16.316;2023-05-07T14:39:52;7.38;;;4.82;;
48161;SDS011;33950;48.154;16.316;2023-05-07T14:42:38;15.30;;;6.00;;
48161;SDS011;33950;48.154;16.316;2023-05-07T14:45:24;9.13;;;5.28;;
48161;SDS011;33950;48.154;16.316;2023-05-07T14:48:10;7.43;;;4.63;;
48161;SDS011;33950;48.154;16.316;2023-05-07T14:51:00;8.70;;;5.35;;
48161;SDS011;33950;48.154;16.316;2023-05-07T14:53:47;69.80;;;8.65;;
48161;SDS011;33950;48.154;16.316;2023-05-07T14:56:34;14.90;;;5.30;;
48161;SDS011;33950;48.154;16.316;2023-05-07T14:59:21;7.97;;;5.03;;
48161;SDS011;33950;48.154;16.316;2023-05-07T15:02:07;5.15;;;4.13;;
48161;SDS011;33950;48.154;16.316;2023-05-07T15:04:54;9.35;;;3.95;;
48161;SDS011;33950;48.154;16.316;2023-05-07T15:07:40;8.30;;;4.45;;
48161;SDS011;33950;48.154;16.316;2023-05-07T15:10:27;9.10;;;4.53;;
48161;SDS011;33950;48.154;16.316;2023-05-07T15:13:13;7.05;;;4.28;;
48161;SDS011;33950;48.154;16.316;2023-05-07T15:16:00;10.57;;;3.80;;
48161;SDS011;33950;48.154;16.316;2023-05-07T15:18:46;8.77;;;4.72;;
48161;SDS011;33950;48.154;16.316;2023-05-07T15:21:32;5.40;;;3.88;;
48161;SDS011;33950;48.154;16.316;2023-05-07T15:24:19;6.82;;;4.03;;
48161;SDS011;33950;48.154;16.316;2023-05-07T15:27:07;7.85;;;3.88;;
48161;SDS011;33950;48.154;16.316;2023-05-07T15:29:53;8.90;;;4.05;;
48161;SDS011;33950;48.154;16.316;2023-05-07T15:32:39;5.88;;;3.30;;
48161;SDS011;33950;48.154;16.316;2023-05-07T15:35:25;6.28;;;3.28;;
48161;SDS011;33950;48.154;16.316;2023-05-07T15:38:12;5.03;;;3.95;;
48161;SDS011;33950;48.154;16.316;2023-05-07T15:40:58;5.65;;;4.13;;
48161;SDS011;33950;48.154;16.316;2023-05-07T15:43:50;19.20;;;4.40;;
48161;SDS011;33950;48.154;16.316;2023-05-07T15:46:37;7.53;;;4.18;;
48161;SDS011;33950;48.154;16.316;2023-05-07T15:49:23;4.75;;;3.75;;
48161;SDS011;33950;48.154;16.316;2023-05-07T15:52:09;4.78;;;3.60;;
48161;SDS011;33950;48.154;16.316;2023-05-07T15:54:56;4.95;;;3.90;;
48161;SDS011;33950;48.154;16.316;2023-05-07T15:57:42;5.22;;;3.15;;
48161;SDS011;33950;48.154;16.316;2023-05-07T16:00:30;7.20;;;3.58;;
48161;SDS011;33950;48.154;16.316;2023-05-07T16:03:17;4.78;;;3.50;;
48161;SDS011;33950;48.154;16.316;2023-05-07T16:06:03;4.82;;;3.55;;
48161;SDS011;33950;48.154;16.316;2023-05-07T16:08:50;7.55;;;3.63;;
48161;SDS011;33950;48.154;16.316;2023-05-07T16:11:38;6.00;;;3.70;;
48161;SDS011;33950;48.154;16.316;2023-05-07T16:14:27;4.60;;;3.53;;
48161;SDS011;33950;48.154;16.316;2023-05-07T16:17:16;5.20;;;3.58;;
48161;SDS011;33950;48.154;16.316;2023-05-07T16:20:02;5.40;;;4.25;;
48161;SDS011;33950;48.154;16.316;2023-05-07T16:22:51;5.03;;;3.95;;
48161;SDS011;33950;48.154;16.316;2023-05-07T16:25:37;4.95;;;3.63;;
48161;SDS011;33950;48.154;16.316;2023-05-07T16:28:23;4.95;;;3.42;;
48161;SDS011;33950;48.154;16.316;2023-05-07T16:31:09;4.32;;;3.85;;
48161;SDS011;33950;48.154;16.316;2023-05-07T16:33:56;5.70;;;4.22;;